createdAt,value
2023-05-24T00:01:42.267Z,11.10
2023-05-24T00:04:12.267Z,11.10
2023-05-24T00:06:40.319Z,11.00
2023-05-24T00:09:09.019Z,11.00
2023-05-24T00:11:38.446Z,11.00
2023-05-24T00:14:06.519Z,11.00
2023-05-24T00:16:35.521Z,11.00
2023-05-24T00:19:04.803Z,11.00
2023-05-24T00:21:35.451Z,11.10
2023-05-24T00:24:03.389Z,11.10
2023-05-24T00:26:31.298Z,11.10
2023-05-24T00:28:59.205Z,11.10
2023-05-24T00:31:27.149Z,11.10
2023-05-24T00:33:56.359Z,11.10
2023-05-24T00:36:26.149Z,11.10
2023-05-24T00:38:54.070Z,11.10
2023-05-24T00:41:22.075Z,11.10
2023-05-24T00:43:49.994Z,11.10
2023-05-24T00:46:22.288Z,11.10
2023-05-24T00:48:50.922Z,11.10
2023-05-24T00:51:18.968Z,11.10
2023-05-24T00:53:49.674Z,11.00
2023-05-24T00:56:18.724Z,10.90
2023-05-24T00:58:46.721Z,10.90
2023-05-24T01:01:14.710Z,10.90
2023-05-24T01:03:43.437Z,10.90
2023-05-24T01:06:13.437Z,10.80
2023-05-24T01:08:56.138Z,10.80
2023-05-24T01:11:30.214Z,10.70
2023-05-24T01:14:05.593Z,10.70
2023-05-24T01:16:46.463Z,10.70
2023-05-24T01:19:45.476Z,10.70
2023-05-24T01:22:25.682Z,10.70
2023-05-24T01:25:03.739Z,10.70
2023-05-24T01:27:34.899Z,10.60
2023-05-24T01:30:04.280Z,10.60
2023-05-24T01:32:32.943Z,10.60
2023-05-24T01:35:01.198Z,10.50
2023-05-24T01:37:29.110Z,10.50
2023-05-24T01:39:57.100Z,10.50
2023-05-24T01:42:28.466Z,10.50
2023-05-24T01:45:06.814Z,10.50
2023-05-24T01:47:46.862Z,10.50
2023-05-24T01:50:21.220Z,10.50
2023-05-24T01:52:52.703Z,10.50
2023-05-24T01:55:21.639Z,10.50
2023-05-24T01:57:52.852Z,10.50
2023-05-24T02:00:23.638Z,10.50
2023-05-24T02:02:52.524Z,10.40
2023-05-24T02:05:20.673Z,10.50
2023-05-24T02:07:48.575Z,10.40
2023-05-24T02:10:16.780Z,10.40
2023-05-24T02:12:44.767Z,10.50
2023-05-24T02:15:14.811Z,10.40
2023-05-24T02:17:45.986Z,10.40
2023-05-24T02:20:14.570Z,10.40
2023-05-24T02:22:42.549Z,10.40
2023-05-24T02:25:10.881Z,10.40
2023-05-24T02:27:40.907Z,10.40
2023-05-24T02:30:10.850Z,10.30
2023-05-24T02:32:38.810Z,10.30
2023-05-24T02:35:08.783Z,10.40
2023-05-24T02:37:36.740Z,10.40
2023-05-24T02:40:05.360Z,10.40
2023-05-24T02:42:33.308Z,10.40
2023-05-24T02:45:01.171Z,10.40
2023-05-24T02:47:29.112Z,10.40
2023-05-24T02:49:57.402Z,10.40
2023-05-24T02:52:27.223Z,10.40
2023-05-24T02:54:55.101Z,10.40
2023-05-24T02:57:23.089Z,10.40
2023-05-24T02:59:51.198Z,10.40
2023-05-24T03:02:19.540Z,10.40
2023-05-24T03:04:47.427Z,10.40
2023-05-24T03:07:15.381Z,10.40
2023-05-24T03:09:44.736Z,10.40
2023-05-24T03:12:12.908Z,10.40
2023-05-24T03:14:40.960Z,10.40
2023-05-24T03:17:08.869Z,10.40
2023-05-24T03:19:37.463Z,10.40
2023-05-24T03:22:06.246Z,10.40
2023-05-24T03:24:34.572Z,10.40
2023-05-24T03:27:03.874Z,10.40
2023-05-24T03:29:32.341Z,10.40
2023-05-24T03:32:00.449Z,10.30
2023-05-24T03:34:28.494Z,10.30
2023-05-24T03:36:56.375Z,10.30
2023-05-24T03:39:24.270Z,10.30
2023-05-24T03:41:52.192Z,10.30
2023-05-24T03:44:21.531Z,10.30
2023-05-24T03:46:49.621Z,10.30
2023-05-24T03:49:17.772Z,10.30
2023-05-24T03:51:46.111Z,10.30
2023-05-24T03:54:14.099Z,10.30
2023-05-24T03:56:42.054Z,10.30
2023-05-24T03:59:10.101Z,10.30
2023-05-24T04:01:40.207Z,10.30
2023-05-24T04:04:08.169Z,10.30
2023-05-24T04:06:36.822Z,10.20
2023-05-24T04:09:05.986Z,10.20
2023-05-24T04:11:34.004Z,10.20
2023-05-24T04:14:02.342Z,10.20
2023-05-24T04:16:33.971Z,10.20
2023-05-24T04:19:04.283Z,10.20
2023-05-24T04:21:33.341Z,10.20
2023-05-24T04:24:01.672Z,10.20
2023-05-24T04:26:29.940Z,10.20
2023-05-24T04:28:58.109Z,10.10
2023-05-24T04:31:26.376Z,10.10
2023-05-24T04:33:55.343Z,10.10
2023-05-24T04:36:25.177Z,10.00
2023-05-24T04:38:56.272Z,10.00
2023-05-24T04:41:24.438Z,10.00
2023-05-24T04:43:53.307Z,9.90
2023-05-24T04:46:21.265Z,9.90
2023-05-24T04:48:49.412Z,9.90
2023-05-24T04:51:17.395Z,9.90
2023-05-24T04:53:46.728Z,9.90
2023-05-24T04:56:14.927Z,9.80
2023-05-24T04:58:42.910Z,9.80
2023-05-24T05:01:10.787Z,9.80
2023-05-24T05:03:38.926Z,9.80
2023-05-24T05:06:07.121Z,9.90
2023-05-24T05:08:35.104Z,9.90
2023-05-24T05:11:04.485Z,9.90
2023-05-24T05:13:32.363Z,10.00
2023-05-24T05:16:00.686Z,10.10
2023-05-24T05:18:28.651Z,10.20
2023-05-24T05:20:57.280Z,10.20
2023-05-24T05:23:25.259Z,10.30
2023-05-24T05:25:53.194Z,10.30
2023-05-24T05:28:22.547Z,10.20
2023-05-24T05:30:50.503Z,10.30
2023-05-24T05:33:18.421Z,10.30
2023-05-24T05:35:46.459Z,10.30
2023-05-24T05:38:14.412Z,10.40
2023-05-24T05:40:42.384Z,10.40
2023-05-24T05:43:10.810Z,10.50
2023-05-24T05:45:40.363Z,10.60
2023-05-24T05:48:08.374Z,10.60
2023-05-24T05:50:36.261Z,10.60
2023-05-24T05:53:04.164Z,10.70
2023-05-24T05:55:32.072Z,10.70
2023-05-24T05:58:00.031Z,10.80
2023-05-24T06:00:27.940Z,10.80
2023-05-24T06:02:57.444Z,10.90
2023-05-24T06:05:25.697Z,10.90
2023-05-24T06:07:53.670Z,11.00
2023-05-24T06:10:21.681Z,11.00
2023-05-24T06:12:49.805Z,11.10
2023-05-24T06:15:18.402Z,11.10
2023-05-24T06:17:47.890Z,11.10
2023-05-24T06:20:17.486Z,11.20
2023-05-24T06:22:45.604Z,11.30
2023-05-24T06:25:14.833Z,11.40
2023-05-24T06:27:43.139Z,11.50
2023-05-24T06:30:11.777Z,11.50
2023-05-24T06:32:39.834Z,11.50
2023-05-24T06:35:08.946Z,11.60
2023-05-24T06:37:38.593Z,11.60
2023-05-24T06:40:09.427Z,11.60
2023-05-24T06:42:39.014Z,11.60
2023-05-24T06:45:08.329Z,11.70
2023-05-24T06:47:36.875Z,11.80
2023-05-24T06:50:05.630Z,11.90
2023-05-24T06:52:33.646Z,11.90
2023-05-24T06:55:02.937Z,12.00
2023-05-24T06:57:30.901Z,12.00
2023-05-24T06:59:58.829Z,12.10
2023-05-24T07:02:28.625Z,12.10
2023-05-24T07:04:57.266Z,12.10
2023-05-24T07:07:25.537Z,12.10
2023-05-24T07:09:53.527Z,12.20
2023-05-24T07:12:23.436Z,12.20
2023-05-24T07:14:51.729Z,12.20
2023-05-24T07:17:19.701Z,12.20
2023-05-24T07:19:47.617Z,12.30
2023-05-24T07:22:15.937Z,12.40
2023-05-24T07:24:43.894Z,12.40
2023-05-24T07:27:11.840Z,12.60
2023-05-24T07:29:43.983Z,12.50
2023-05-24T07:32:13.235Z,12.50
2023-05-24T07:34:41.570Z,12.50
2023-05-24T07:37:09.493Z,12.60
2023-05-24T07:39:38.090Z,12.70
2023-05-24T07:42:06.770Z,12.70
2023-05-24T07:44:34.970Z,12.80
2023-05-24T07:47:04.446Z,12.80
2023-05-24T07:49:32.626Z,12.80
2023-05-24T07:52:00.634Z,13.00
2023-05-24T07:54:28.507Z,13.10
2023-05-24T07:56:57.429Z,13.30
2023-05-24T07:59:25.348Z,13.30
2023-05-24T08:01:53.968Z,13.30
2023-05-24T08:04:24.106Z,13.30
2023-05-24T08:06:52.189Z,13.40
2023-05-24T08:09:20.127Z,13.50
2023-05-24T08:11:48.053Z,13.60
2023-05-24T08:14:16.784Z,13.70
2023-05-24T08:16:44.761Z,13.90
2023-05-24T08:19:12.769Z,14.00
2023-05-24T08:21:42.380Z,14.30
2023-05-24T08:24:10.340Z,14.60
2023-05-24T08:26:38.322Z,14.90
2023-05-24T08:29:06.470Z,15.20
2023-05-24T08:31:34.465Z,15.50
2023-05-24T08:34:02.746Z,15.70
2023-05-24T08:36:30.693Z,15.90
2023-05-24T08:39:00.204Z,16.40
2023-05-24T08:41:29.477Z,16.70
2023-05-24T08:43:59.761Z,16.90
2023-05-24T08:46:28.150Z,16.90
2023-05-24T08:48:58.819Z,17.10
2023-05-24T08:51:27.403Z,17.10
2023-05-24T08:53:56.216Z,17.00
2023-05-24T08:56:27.702Z,16.90
2023-05-24T08:58:56.323Z,16.80
2023-05-24T09:01:27.143Z,16.90
2023-05-24T09:03:57.771Z,16.90
2023-05-24T09:06:26.360Z,17.00
2023-05-24T09:08:54.709Z,17.20
2023-05-24T09:11:24.128Z,17.10
2023-05-24T09:13:55.648Z,17.10
2023-05-24T09:16:23.632Z,17.50
2023-05-24T09:18:51.479Z,17.90
2023-05-24T09:21:20.765Z,17.80
2023-05-24T09:23:49.589Z,18.00
2023-05-24T09:26:18.138Z,18.00
2023-05-24T09:28:48.034Z,18.00
2023-05-24T09:31:17.353Z,18.10
2023-05-24T09:33:49.543Z,18.00
2023-05-24T09:36:18.496Z,18.10
2023-05-24T09:38:46.426Z,18.40
2023-05-24T09:41:14.372Z,18.50
2023-05-24T09:43:50.411Z,18.80
2023-05-24T09:46:21.570Z,18.60
2023-05-24T09:48:59.207Z,18.30
2023-05-24T09:51:28.169Z,18.00
2023-05-24T09:53:58.593Z,17.80
2023-05-24T09:56:27.441Z,17.40
2023-05-24T09:58:56.696Z,17.20
2023-05-24T10:01:26.898Z,17.10
2023-05-24T10:03:56.333Z,17.20
2023-05-24T10:06:25.122Z,17.20
2023-05-24T10:08:54.342Z,17.30
2023-05-24T10:11:22.458Z,17.60
2023-05-24T10:13:51.225Z,17.70
2023-05-24T10:16:19.282Z,18.10
2023-05-24T10:18:49.002Z,18.50
2023-05-24T10:21:18.921Z,18.70
2023-05-24T10:23:51.974Z,18.70
2023-05-24T10:26:21.969Z,18.70
2023-05-24T10:28:56.532Z,18.70
2023-05-24T10:31:28.508Z,19.00
2023-05-24T10:34:07.750Z,18.90
2023-05-24T10:36:37.373Z,18.80
2023-05-24T10:39:05.926Z,19.20
2023-05-24T10:41:40.819Z,19.30
2023-05-24T10:44:12.270Z,19.70
2023-05-24T10:47:08.022Z,19.70
2023-05-24T10:49:38.948Z,19.60
2023-05-24T10:52:11.028Z,19.80
2023-05-24T10:54:44.700Z,20.20
2023-05-24T10:57:24.332Z,20.20
2023-05-24T10:59:52.293Z,20.40
2023-05-24T11:02:20.732Z,20.40
2023-05-24T11:04:50.485Z,20.40
2023-05-24T11:07:21.110Z,20.20
2023-05-24T11:09:54.229Z,20.00
2023-05-24T11:12:22.662Z,20.30
2023-05-24T11:14:52.222Z,20.50
2023-05-24T11:17:22.026Z,20.80
2023-05-24T11:19:53.733Z,20.40
2023-05-24T11:22:23.600Z,20.60
2023-05-24T11:24:53.495Z,20.70
2023-05-24T11:27:21.875Z,20.70
2023-05-24T11:29:50.306Z,20.70
2023-05-24T11:32:19.594Z,20.50
2023-05-24T11:34:48.265Z,20.50
2023-05-24T11:37:18.826Z,21.00
2023-05-24T11:39:51.660Z,21.30
2023-05-24T11:42:19.721Z,21.30
2023-05-24T11:44:50.810Z,21.10
2023-05-24T11:47:21.849Z,21.20
2023-05-24T11:49:51.859Z,21.40
2023-05-24T11:52:22.180Z,21.00
2023-05-24T11:54:51.770Z,21.20
2023-05-24T11:57:23.764Z,21.50
2023-05-24T11:59:51.702Z,21.50
2023-05-24T12:02:19.925Z,21.60
2023-05-24T12:04:47.948Z,21.60
2023-05-24T12:07:16.691Z,21.70
2023-05-24T12:09:46.103Z,21.90
2023-05-24T12:12:14.048Z,21.80
2023-05-24T12:14:42.250Z,21.70
2023-05-24T12:17:17.247Z,21.70
2023-05-24T12:19:45.364Z,22.00
2023-05-24T12:22:16.112Z,21.70
2023-05-24T12:24:45.449Z,21.60
2023-05-24T12:27:13.647Z,21.70
2023-05-24T12:29:42.616Z,22.00
2023-05-24T12:32:13.986Z,22.10
2023-05-24T12:34:43.231Z,22.40
2023-05-24T12:37:13.212Z,22.20
2023-05-24T12:39:43.812Z,22.10
2023-05-24T12:42:14.136Z,22.20
2023-05-24T12:44:42.891Z,22.80
2023-05-24T12:47:11.784Z,23.10
2023-05-24T12:49:39.998Z,23.40
2023-05-24T12:52:08.023Z,23.40
2023-05-24T12:54:35.974Z,23.10
2023-05-24T12:57:04.802Z,22.90
2023-05-24T12:59:34.978Z,21.90
2023-05-24T13:02:03.052Z,21.00
2023-05-24T13:04:33.494Z,21.00
2023-05-24T13:07:02.823Z,21.30
2023-05-24T13:09:31.012Z,21.00
2023-05-24T13:11:59.098Z,21.10
2023-05-24T13:14:27.326Z,21.10
2023-05-24T13:16:56.633Z,21.30
2023-05-24T13:19:24.664Z,21.50
2023-05-24T13:21:52.781Z,21.50
2023-05-24T13:24:20.857Z,21.60
2023-05-24T13:26:49.335Z,21.50
2023-05-24T13:29:34.117Z,21.60
2023-05-24T13:32:06.923Z,21.80
2023-05-24T13:34:35.134Z,21.90
2023-05-24T13:37:03.229Z,22.00
2023-05-24T13:39:31.210Z,22.10
2023-05-24T13:42:00.915Z,22.10
2023-05-24T13:44:29.485Z,21.70
2023-05-24T13:46:57.770Z,21.00
2023-05-24T13:49:27.921Z,20.30
2023-05-24T13:51:58.471Z,20.20
2023-05-24T13:54:27.306Z,20.60
2023-05-24T13:56:57.356Z,20.80
2023-05-24T13:59:25.903Z,21.10
2023-05-24T14:01:53.932Z,21.20
2023-05-24T14:04:21.908Z,21.20
2023-05-24T14:06:51.179Z,20.90
2023-05-24T14:09:21.160Z,20.30
2023-05-24T14:11:49.148Z,20.20
2023-05-24T14:16:51.588Z,20.50
2023-05-24T14:19:19.654Z,20.90
2023-05-24T14:21:47.737Z,21.10
2023-05-24T14:24:17.090Z,21.20
2023-05-24T14:26:47.360Z,21.30
2023-05-24T14:29:15.420Z,21.00
2023-05-24T14:31:43.990Z,20.40
2023-05-24T14:34:12.631Z,20.00
2023-05-24T14:36:41.725Z,19.80
2023-05-24T14:39:09.662Z,19.60
2023-05-24T14:41:38.913Z,19.60
2023-05-24T14:44:06.851Z,19.50
2023-05-24T14:46:34.993Z,19.70
2023-05-24T14:49:03.426Z,19.80
2023-05-24T14:51:31.319Z,20.20
2023-05-24T14:53:59.284Z,20.60
2023-05-24T14:56:27.374Z,20.90
2023-05-24T14:58:57.427Z,20.90
2023-05-24T15:01:26.104Z,20.70
2023-05-24T15:03:54.023Z,20.40
2023-05-24T15:06:21.986Z,19.90
2023-05-24T15:08:49.869Z,19.70
2023-05-24T15:11:19.396Z,19.90
2023-05-24T15:13:47.268Z,20.00
2023-05-24T15:16:16.483Z,20.10
2023-05-24T15:18:44.405Z,20.30
2023-05-24T15:21:12.286Z,20.60
2023-05-24T15:23:40.180Z,20.30
2023-05-24T15:26:08.174Z,20.30
2023-05-24T15:28:36.506Z,20.20
2023-05-24T15:31:04.750Z,20.00
2023-05-24T15:33:34.505Z,20.00
2023-05-24T15:36:02.422Z,19.80
2023-05-24T15:38:30.318Z,19.80
2023-05-24T15:40:58.224Z,19.70
2023-05-24T15:43:26.158Z,19.70
2023-05-24T15:45:54.573Z,19.70
2023-05-24T15:48:22.800Z,19.50
2023-05-24T15:51:32.629Z,19.10
2023-05-24T15:53:40.029Z,18.60
2023-05-24T15:56:08.351Z,18.20
2023-05-24T15:58:36.226Z,17.90
2023-05-24T16:01:04.134Z,17.50
2023-05-24T16:03:32.300Z,17.40
2023-05-24T16:06:01.639Z,17.20
2023-05-24T16:08:29.974Z,17.00
2023-05-24T16:10:58.269Z,16.90
2023-05-24T16:13:26.325Z,16.80
2023-05-24T16:15:54.269Z,16.80
2023-05-24T16:18:23.583Z,16.80
2023-05-24T16:20:52.740Z,16.80
2023-05-24T16:23:23.699Z,16.70
2023-05-24T16:25:52.253Z,16.80
2023-05-24T16:28:24.124Z,16.80
2023-05-24T16:30:55.809Z,16.90
2023-05-24T16:33:24.270Z,17.10
2023-05-24T16:35:55.691Z,17.10
2023-05-24T16:38:26.071Z,17.10
2023-05-24T16:40:54.650Z,17.10
2023-05-24T16:43:22.761Z,17.00
2023-05-24T16:45:51.202Z,16.90
2023-05-24T16:48:21.268Z,16.80
2023-05-24T16:50:50.407Z,16.70
2023-05-24T16:53:20.336Z,16.60
2023-05-24T16:55:53.629Z,16.60
2023-05-24T16:58:21.965Z,16.50
2023-05-24T17:00:49.966Z,16.40
2023-05-24T17:03:18.120Z,16.30
2023-05-24T17:05:46.179Z,16.20
2023-05-24T17:08:14.091Z,16.10
2023-05-24T17:10:43.155Z,16.00
2023-05-24T17:13:12.720Z,16.00
2023-05-24T17:15:40.787Z,15.90
2023-05-24T17:18:08.760Z,15.80
2023-05-24T17:20:36.876Z,15.70
2023-05-24T17:23:05.069Z,15.80
2023-05-24T17:25:33.096Z,15.80
2023-05-24T17:28:01.447Z,15.80
2023-05-24T17:30:33.141Z,15.70
2023-05-24T17:33:01.333Z,15.70
2023-05-24T17:35:29.314Z,15.70
2023-05-24T17:37:57.280Z,15.60
2023-05-24T17:40:25.216Z,15.60
2023-05-24T17:42:53.134Z,15.50
2023-05-24T17:45:21.104Z,15.60
2023-05-24T17:47:50.596Z,15.60
2023-05-24T17:50:18.658Z,15.60
2023-05-24T17:52:46.681Z,15.50
2023-05-24T17:55:14.596Z,15.50
2023-05-24T17:57:42.512Z,15.50
2023-05-24T18:00:12.311Z,15.50
2023-05-24T18:02:40.288Z,15.40
2023-05-24T18:05:10.755Z,15.40
2023-05-24T18:07:39.080Z,15.30
2023-05-24T18:10:08.182Z,15.30
2023-05-24T18:12:36.213Z,15.30
2023-05-24T18:15:04.383Z,15.30
2023-05-24T18:17:32.508Z,15.20
2023-05-24T18:20:00.606Z,15.10
2023-05-24T18:22:30.083Z,15.10
2023-05-24T18:24:58.481Z,15.10
2023-05-24T18:27:26.696Z,15.00
2023-05-24T18:29:54.632Z,15.00
2023-05-24T18:32:23.419Z,14.90
2023-05-24T18:34:51.414Z,14.90
2023-05-24T18:37:22.797Z,14.90
2023-05-24T18:39:52.289Z,14.80
2023-05-24T18:42:20.231Z,14.80
2023-05-24T18:44:48.193Z,14.80
2023-05-24T18:47:16.096Z,14.70
2023-05-24T18:49:44.284Z,14.70
2023-05-24T18:52:12.245Z,14.60
2023-05-24T18:54:40.175Z,14.60
2023-05-24T18:57:09.391Z,14.60
2023-05-24T18:59:38.734Z,14.60
2023-05-24T19:02:07.385Z,14.50
2023-05-24T19:04:35.282Z,14.50
2023-05-24T19:07:03.193Z,14.50
2023-05-24T19:09:31.175Z,14.50
2023-05-24T19:12:00.151Z,14.40
2023-05-24T19:14:31.054Z,14.50
2023-05-24T19:17:00.467Z,14.40
2023-05-24T19:19:28.579Z,14.40
2023-05-24T19:21:56.787Z,14.30
2023-05-24T19:24:25.965Z,14.30
2023-05-24T19:26:54.217Z,14.30
2023-05-24T19:29:22.153Z,14.20
2023-05-24T19:31:52.203Z,14.20
2023-05-24T19:34:20.585Z,14.20
2023-05-24T19:36:48.582Z,14.20
2023-05-24T19:39:16.573Z,14.10
2023-05-24T19:41:44.542Z,14.10
2023-05-24T19:44:12.453Z,14.10
2023-05-24T19:46:40.490Z,14.10
2023-05-24T19:49:09.875Z,14.00
2023-05-24T19:51:37.902Z,14.00
2023-05-24T19:54:06.033Z,14.00
2023-05-24T19:56:33.957Z,14.00
2023-05-24T19:59:01.830Z,13.90
2023-05-24T20:01:29.843Z,13.90
2023-05-24T20:03:58.098Z,13.90
2023-05-24T20:06:27.693Z,13.80
2023-05-24T20:08:58.817Z,13.80
2023-05-24T20:11:28.133Z,13.80
2023-05-24T20:13:56.465Z,13.70
2023-05-24T20:16:24.534Z,13.70
2023-05-24T20:18:52.484Z,13.60
2023-05-24T20:21:20.459Z,13.60
2023-05-24T20:23:57.325Z,13.60
2023-05-24T20:26:26.093Z,13.60
2023-05-24T20:28:54.073Z,13.50
2023-05-24T20:31:22.092Z,13.50
2023-05-24T20:33:51.464Z,13.50
2023-05-24T20:36:19.512Z,13.40
2023-05-24T20:38:49.029Z,13.40
2023-05-24T20:41:17.195Z,13.40
2023-05-24T20:43:45.237Z,13.40
2023-05-24T20:46:14.571Z,13.40
2023-05-24T20:48:43.264Z,13.30
2023-05-24T20:51:11.530Z,13.20
2023-05-24T20:53:40.304Z,13.10
2023-05-24T20:56:09.693Z,13.10
2023-05-24T20:58:37.714Z,13.00
2023-05-24T21:01:05.726Z,12.90
2023-05-24T21:03:33.988Z,12.90
2023-05-24T21:06:01.962Z,12.90
2023-05-24T21:08:29.953Z,12.90
2023-05-24T21:10:57.903Z,12.90
2023-05-24T21:13:28.160Z,12.80
2023-05-24T21:15:56.196Z,12.80
2023-05-24T21:18:24.078Z,12.80
2023-05-24T21:20:53.273Z,12.80
2023-05-24T21:23:21.265Z,12.80
2023-05-24T21:25:49.132Z,12.80
2023-05-24T21:28:17.049Z,12.70
2023-05-24T21:30:46.557Z,12.70
2023-05-24T21:33:14.941Z,12.70
2023-05-24T21:35:43.162Z,12.70
2023-05-24T21:38:11.225Z,12.70
2023-05-24T21:40:39.202Z,12.60
2023-05-24T21:43:11.947Z,12.60
2023-05-24T21:45:40.199Z,12.60
2023-05-24T21:48:09.990Z,12.60
2023-05-24T21:50:37.961Z,12.50
2023-05-24T21:53:05.890Z,12.50
2023-05-24T21:55:33.842Z,12.50
2023-05-24T21:58:01.795Z,12.50
2023-05-24T22:00:30.547Z,12.40
2023-05-24T22:02:58.684Z,12.40
2023-05-24T22:05:28.264Z,12.40
2023-05-24T22:07:56.242Z,12.30
2023-05-24T22:10:24.236Z,12.20
2023-05-24T22:12:52.212Z,12.10
2023-05-24T22:15:20.431Z,12.10
2023-05-24T22:17:49.069Z,12.00
2023-05-24T22:20:17.514Z,11.90
2023-05-24T22:22:53.665Z,11.90
2023-05-24T22:25:22.034Z,11.80
2023-05-24T22:27:50.433Z,11.80
2023-05-24T22:30:19.429Z,11.70
2023-05-24T22:32:47.382Z,11.70
2023-05-24T22:35:15.420Z,11.70
2023-05-24T22:37:43.590Z,11.60
2023-05-24T22:40:14.101Z,11.60
2023-05-24T22:42:42.034Z,11.50
2023-05-24T22:45:10.991Z,11.50
2023-05-24T22:47:39.973Z,11.40
2023-05-24T22:50:09.087Z,11.40
2023-05-24T22:52:42.395Z,11.30
2023-05-24T22:55:11.961Z,11.30
2023-05-24T22:57:40.130Z,11.20
2023-05-24T23:00:09.692Z,11.20
2023-05-24T23:02:37.877Z,11.10
2023-05-24T23:05:06.665Z,11.10
2023-05-24T23:07:34.584Z,11.00
2023-05-24T23:10:03.070Z,11.00
2023-05-24T23:12:32.373Z,10.90
2023-05-24T23:15:00.548Z,10.90
2023-05-24T23:17:28.747Z,10.80
2023-05-24T23:19:56.684Z,10.80
2023-05-24T23:22:26.272Z,10.70
2023-05-24T23:24:54.348Z,10.70
2023-05-24T23:27:22.422Z,10.70
2023-05-24T23:29:51.668Z,10.60
2023-05-24T23:32:19.596Z,10.60
2023-05-24T23:34:47.532Z,10.50
2023-05-24T23:37:15.450Z,10.50
2023-05-24T23:39:43.427Z,10.40
2023-05-24T23:42:11.387Z,10.40
2023-05-24T23:44:39.275Z,10.40
2023-05-24T23:47:08.691Z,10.30
2023-05-24T23:49:36.724Z,10.30
2023-05-24T23:52:04.963Z,10.30
2023-05-24T23:54:32.893Z,10.20
2023-05-24T23:57:01.122Z,10.20
2023-05-24T23:59:29.064Z,10.20
